createdAt,value
2023-12-05T00:03:00.936Z,19.02
2023-12-05T00:08:06.594Z,20.45
2023-12-05T00:13:11.401Z,20.60
2023-12-05T00:18:16.303Z,18.35
2023-12-05T00:23:21.119Z,19.88
2023-12-05T00:28:25.971Z,24.77
2023-12-05T00:33:30.716Z,22.67
2023-12-05T00:38:35.873Z,19.85
2023-12-05T00:43:40.894Z,23.00
2023-12-05T00:48:45.398Z,23.90
2023-12-05T00:53:51.006Z,21.63
2023-12-05T00:58:55.808Z,19.57
2023-12-05T01:04:00.741Z,19.00
2023-12-05T01:09:08.202Z,17.13
2023-12-05T01:14:12.870Z,36.92
2023-12-05T01:19:17.722Z,21.63
2023-12-05T01:24:22.435Z,25.83
2023-12-05T01:29:27.453Z,40.72
2023-12-05T01:34:32.276Z,16.55
2023-12-05T01:39:37.265Z,33.22
2023-12-05T01:44:42.292Z,25.88
2023-12-05T01:49:48.908Z,15.85
2023-12-05T01:54:54.736Z,15.85
2023-12-05T02:00:00.067Z,17.77
2023-12-05T02:05:06.723Z,28.85
2023-12-05T02:10:12.955Z,19.67
2023-12-05T02:15:18.454Z,18.83
2023-12-05T02:20:37.354Z,31.27
2023-12-05T02:26:00.716Z,19.58
2023-12-05T02:31:07.273Z,37.25
2023-12-05T02:36:21.881Z,23.20
2023-12-05T02:41:32.536Z,17.70
2023-12-05T02:46:39.162Z,26.33
2023-12-05T02:51:44.656Z,26.55
2023-12-05T02:56:49.738Z,26.80
2023-12-05T03:01:55.248Z,24.25
2023-12-05T03:07:00.689Z,19.03
2023-12-05T03:12:06.408Z,32.13
2023-12-05T03:17:11.749Z,21.35
2023-12-05T03:22:16.722Z,34.30
2023-12-05T03:27:21.656Z,42.90
2023-12-05T03:32:26.500Z,27.17
2023-12-05T03:37:31.166Z,23.88
2023-12-05T03:42:35.793Z,34.15
2023-12-05T03:47:40.682Z,42.60
2023-12-05T03:52:45.636Z,30.13
2023-12-05T03:57:51.123Z,40.88
2023-12-05T04:02:57.229Z,41.83
2023-12-05T04:08:02.332Z,29.50
2023-12-05T04:13:07.160Z,48.95
2023-12-05T04:18:12.296Z,43.13
2023-12-05T04:23:17.033Z,23.75
2023-12-05T04:28:21.659Z,50.13
2023-12-05T04:33:26.469Z,34.45
2023-12-05T04:38:31.754Z,29.77
2023-12-05T04:43:36.600Z,43.92
2023-12-05T04:48:41.517Z,46.90
2023-12-05T04:53:46.400Z,37.08
2023-12-05T04:58:51.472Z,34.47
2023-12-05T05:03:56.457Z,38.75
2023-12-05T05:09:07.247Z,30.42
2023-12-05T05:14:11.924Z,37.47
2023-12-05T05:19:16.885Z,40.95
2023-12-05T05:24:21.754Z,36.22
2023-12-05T05:29:26.811Z,31.75
2023-12-05T05:34:31.799Z,38.58
2023-12-05T05:39:36.830Z,32.88
2023-12-05T05:44:41.717Z,28.80
2023-12-05T05:49:47.230Z,45.60
2023-12-05T05:54:53.083Z,43.90
2023-12-05T05:59:58.150Z,38.95
2023-12-05T06:05:03.297Z,36.10
2023-12-05T06:10:08.923Z,52.33
2023-12-05T06:15:14.547Z,41.37
2023-12-05T06:20:19.467Z,34.93
2023-12-05T06:25:24.678Z,41.65
2023-12-05T06:30:30.007Z,53.33
2023-12-05T06:35:35.109Z,48.45
2023-12-05T06:40:40.131Z,41.13
2023-12-05T06:45:45.153Z,50.97
2023-12-05T06:50:50.311Z,50.58
2023-12-05T06:55:55.148Z,49.85
2023-12-05T07:01:00.620Z,63.80
2023-12-05T07:06:09.812Z,51.67
2023-12-05T07:11:16.778Z,58.25
2023-12-05T07:16:23.212Z,36.03
2023-12-05T07:21:28.291Z,54.30
2023-12-05T07:26:33.563Z,49.90
2023-12-05T07:31:38.966Z,46.63
2023-12-05T07:36:44.636Z,51.63
2023-12-05T07:41:49.439Z,61.15
2023-12-05T07:46:54.044Z,59.15
2023-12-05T07:51:58.770Z,63.28
2023-12-05T07:57:03.600Z,63.60
2023-12-05T08:02:09.329Z,59.60
2023-12-05T08:07:14.256Z,72.73
2023-12-05T08:12:19.089Z,60.53
2023-12-05T08:17:23.885Z,55.88
2023-12-05T08:22:28.901Z,69.00
2023-12-05T08:27:35.995Z,58.15
2023-12-05T08:32:40.637Z,65.05
2023-12-05T08:37:45.372Z,66.45
2023-12-05T08:42:50.388Z,73.38
2023-12-05T08:47:56.438Z,59.28
2023-12-05T08:53:01.558Z,79.70
2023-12-05T08:58:06.874Z,60.72
2023-12-05T09:03:11.749Z,79.93
2023-12-05T09:08:16.616Z,68.38
2023-12-05T09:13:21.194Z,76.40
2023-12-05T09:18:25.950Z,69.72
2023-12-05T09:23:30.502Z,65.95
2023-12-05T09:28:36.641Z,65.88
2023-12-05T09:38:45.696Z,65.75
2023-12-05T09:43:54.385Z,61.03
2023-12-05T09:49:03.091Z,64.07
2023-12-05T09:54:09.108Z,75.93
2023-12-05T09:59:14.735Z,73.20
2023-12-05T10:04:21.103Z,63.50
2023-12-05T10:09:27.382Z,65.05
2023-12-05T10:19:37.811Z,75.20
2023-12-05T10:24:45.702Z,58.15
2023-12-05T10:29:50.277Z,79.55
2023-12-05T10:34:56.646Z,74.00
2023-12-05T10:45:10.770Z,66.30
2023-12-05T10:50:15.671Z,56.78
2023-12-05T10:55:27.108Z,65.75
2023-12-05T11:00:32.313Z,73.10
2023-12-05T11:05:38.031Z,83.40
2023-12-05T11:10:42.699Z,77.67
2023-12-05T11:15:50.635Z,80.13
2023-12-05T11:21:03.745Z,76.97
2023-12-05T11:26:48.364Z,75.10
2023-12-05T11:31:56.375Z,67.50
2023-12-05T11:37:04.303Z,69.38
2023-12-05T11:42:16.796Z,86.95
2023-12-05T11:47:31.161Z,88.68
2023-12-05T11:52:41.685Z,72.40
2023-12-05T11:57:46.353Z,98.20
2023-12-05T12:02:59.039Z,74.78
2023-12-05T12:08:04.062Z,90.97
2023-12-05T12:13:08.923Z,71.68
2023-12-05T12:18:13.883Z,83.85
2023-12-05T12:23:19.003Z,73.40
2023-12-05T12:28:28.497Z,82.78
2023-12-05T12:33:43.975Z,86.55
2023-12-05T12:38:50.031Z,80.43
2023-12-05T12:43:56.003Z,80.15
2023-12-05T12:49:04.296Z,89.32
2023-12-05T12:54:10.875Z,96.22
2023-12-05T12:59:15.694Z,99.70
2023-12-05T13:04:21.202Z,92.45
2023-12-05T13:09:28.112Z,82.63
2023-12-05T13:14:34.074Z,88.55
2023-12-05T13:19:40.837Z,99.75
2023-12-05T13:24:46.202Z,92.95
2023-12-05T13:29:55.239Z,95.72
2023-12-05T13:35:00.544Z,98.93
2023-12-05T13:40:06.840Z,83.53
2023-12-05T13:50:30.236Z,86.80
2023-12-05T13:55:38.650Z,93.88
2023-12-05T14:00:44.192Z,93.70
2023-12-05T14:05:49.698Z,85.10
2023-12-05T14:10:55.434Z,81.97
2023-12-05T14:16:00.807Z,80.50
2023-12-05T14:21:06.918Z,92.65
2023-12-05T14:26:12.158Z,73.57
2023-12-05T14:31:17.708Z,86.83
2023-12-05T14:36:23.210Z,82.20
2023-12-05T14:41:28.977Z,82.53
2023-12-05T14:46:34.100Z,85.97
2023-12-05T14:51:39.298Z,86.82
2023-12-05T14:56:44.478Z,73.72
2023-12-05T15:01:50.118Z,90.90
2023-12-05T15:06:57.138Z,88.53
2023-12-05T15:12:04.983Z,88.93
2023-12-05T15:17:10.140Z,78.25
2023-12-05T15:22:15.222Z,83.90
2023-12-05T15:27:20.708Z,82.95
2023-12-05T15:37:33.580Z,88.03
2023-12-05T15:42:39.203Z,98.03
2023-12-05T15:47:44.758Z,87.33
2023-12-05T15:52:50.749Z,91.80
2023-12-05T15:57:56.044Z,100.00
2023-12-05T16:03:01.625Z,108.63
2023-12-05T16:08:07.811Z,101.20
2023-12-05T16:13:13.244Z,101.20
2023-12-05T16:18:18.649Z,101.60
2023-12-05T16:23:25.310Z,95.30
2023-12-05T16:28:33.455Z,99.20
2023-12-05T16:33:40.199Z,108.35
2023-12-05T16:38:45.263Z,92.45
2023-12-05T16:43:51.009Z,103.00
2023-12-05T16:48:56.319Z,100.93
2023-12-05T16:54:01.386Z,116.00
2023-12-05T16:59:06.736Z,123.50
2023-12-05T17:09:21.058Z,100.25
2023-12-05T17:14:26.348Z,104.95
2023-12-05T17:19:32.518Z,109.03
2023-12-05T17:24:39.142Z,106.53
2023-12-05T17:29:44.280Z,95.43
2023-12-05T17:34:49.452Z,97.15
2023-12-05T17:39:55.152Z,97.30
2023-12-05T17:45:00.383Z,91.83
2023-12-05T17:50:05.941Z,88.57
2023-12-05T17:55:12.658Z,99.20
2023-12-05T18:00:18.800Z,80.35
2023-12-05T18:05:23.965Z,94.83
2023-12-05T18:10:29.790Z,95.73
2023-12-05T18:15:35.090Z,93.20
2023-12-05T18:20:40.224Z,83.17
2023-12-05T18:25:45.187Z,91.03
2023-12-05T18:30:50.582Z,97.10
2023-12-05T18:35:55.729Z,95.47
2023-12-05T18:41:00.809Z,97.30
2023-12-05T18:46:06.189Z,108.32
2023-12-05T18:51:11.315Z,87.77
2023-12-05T18:56:16.383Z,106.72
2023-12-05T19:01:21.702Z,93.22
2023-12-05T19:06:28.205Z,89.13
2023-12-05T19:11:33.351Z,91.50
2023-12-05T19:16:38.512Z,78.07
2023-12-05T19:21:48.839Z,78.78
2023-12-05T19:26:56.710Z,90.85
2023-12-05T19:32:01.791Z,77.80
2023-12-05T19:37:07.181Z,87.70
2023-12-05T19:42:17.798Z,70.30
2023-12-05T19:47:25.607Z,77.47
2023-12-05T19:52:30.654Z,70.60
2023-12-05T19:57:35.941Z,84.65
2023-12-05T20:02:41.024Z,59.50
2023-12-05T20:07:46.051Z,78.55
2023-12-05T20:12:51.141Z,66.72
2023-12-05T20:17:56.282Z,69.07
2023-12-05T20:23:01.737Z,76.47
2023-12-05T20:28:07.141Z,78.63
2023-12-05T20:33:12.205Z,74.63
2023-12-05T20:38:17.437Z,62.42
2023-12-05T20:43:22.668Z,50.33
2023-12-05T20:48:29.981Z,59.10
2023-12-05T20:53:36.208Z,62.85
2023-12-05T20:58:41.756Z,67.65
2023-12-05T21:03:47.989Z,56.93
2023-12-05T21:09:10.981Z,58.83
2023-12-05T21:14:18.454Z,34.22
2023-12-05T21:19:26.007Z,41.00
2023-12-05T21:24:34.972Z,55.63
2023-12-05T21:29:42.081Z,49.75
2023-12-05T21:34:47.616Z,51.58
2023-12-05T21:39:53.044Z,58.38
2023-12-05T21:44:58.158Z,28.00
2023-12-05T21:50:03.243Z,44.35
2023-12-05T21:55:10.060Z,31.33
2023-12-05T22:00:15.837Z,34.13
2023-12-05T22:05:23.814Z,27.90
2023-12-05T22:10:30.097Z,36.75
2023-12-05T22:15:35.563Z,33.50
2023-12-05T22:20:40.820Z,47.72
2023-12-05T22:25:46.049Z,33.22
2023-12-05T22:30:51.232Z,35.80
2023-12-05T22:35:56.547Z,27.73
2023-12-05T22:41:02.252Z,36.90
2023-12-05T22:46:14.785Z,28.87
2023-12-05T22:51:20.155Z,32.97
2023-12-05T22:56:25.464Z,30.83
2023-12-05T23:01:30.964Z,24.35
2023-12-05T23:06:36.393Z,29.77
2023-12-05T23:11:41.563Z,26.45
2023-12-05T23:16:47.045Z,24.13
2023-12-05T23:21:52.823Z,28.60
2023-12-05T23:26:58.119Z,26.65
2023-12-05T23:32:03.299Z,19.27
2023-12-05T23:37:08.528Z,17.45
2023-12-05T23:42:13.712Z,18.25
2023-12-05T23:47:21.846Z,17.23
2023-12-05T23:52:28.710Z,16.67
2023-12-05T23:57:33.829Z,12.85
